sensor_id;sensor_type;location;lat;lon;timestamp;P1;durP1;ratioP1;P2;durP2;ratioP2
34982;SDS011;21187;50.976;13.720;2022-10-23T00:01:46;5.72;;;1.08;;
34982;SDS011;21187;50.976;13.720;2022-10-23T00:06:48;3.60;;;1.30;;
34982;SDS011;21187;50.976;13.720;2022-10-23T00:11:51;4.05;;;1.17;;
34982;SDS011;21187;50.976;13.720;2022-10-23T00:16:53;6.28;;;1.50;;
34982;SDS011;21187;50.976;13.720;2022-10-23T00:21:55;4.10;;;1.13;;
34982;SDS011;21187;50.976;13.720;2022-10-23T00:26:57;3.60;;;1.35;;
34982;SDS011;21187;50.976;13.720;2022-10-23T00:31:58;5.82;;;1.10;;
34982;SDS011;21187;50.976;13.720;2022-10-23T00:37:00;4.10;;;1.92;;
34982;SDS011;21187;50.976;13.720;2022-10-23T00:42:02;3.30;;;1.10;;
34982;SDS011;21187;50.976;13.720;2022-10-23T00:47:04;3.10;;;1.20;;
34982;SDS011;21187;50.976;13.720;2022-10-23T00:52:07;5.90;;;1.25;;
34982;SDS011;21187;50.976;13.720;2022-10-23T00:57:13;2.85;;;1.50;;
34982;SDS011;21187;50.976;13.720;2022-10-23T01:02:16;6.18;;;1.25;;
34982;SDS011;21187;50.976;13.720;2022-10-23T01:07:26;4.32;;;1.40;;
34982;SDS011;21187;50.976;13.720;2022-10-23T01:12:37;8.60;;;1.35;;
34982;SDS011;21187;50.976;13.720;2022-10-23T01:17:51;2.53;;;1.20;;
34982;SDS011;21187;50.976;13.720;2022-10-23T01:28:33;14.93;;;1.38;;
34982;SDS011;21187;50.976;13.720;2022-10-23T01:33:43;5.22;;;1.30;;
34982;SDS011;21187;50.976;13.720;2022-10-23T01:38:53;2.72;;;0.88;;
34982;SDS011;21187;50.976;13.720;2022-10-23T01:49:04;3.10;;;1.23;;
34982;SDS011;21187;50.976;13.720;2022-10-23T01:54:10;1.27;;;0.70;;
34982;SDS011;21187;50.976;13.720;2022-10-23T01:59:18;5.97;;;1.10;;
34982;SDS011;21187;50.976;13.720;2022-10-23T02:04:34;4.00;;;1.00;;
34982;SDS011;21187;50.976;13.720;2022-10-23T02:09:40;6.65;;;0.90;;
34982;SDS011;21187;50.976;13.720;2022-10-23T02:15:00;4.25;;;1.33;;
34982;SDS011;21187;50.976;13.720;2022-10-23T02:25:12;6.28;;;0.95;;
34982;SDS011;21187;50.976;13.720;2022-10-23T02:30:21;5.45;;;1.00;;
34982;SDS011;21187;50.976;13.720;2022-10-23T02:35:40;6.32;;;1.15;;
34982;SDS011;21187;50.976;13.720;2022-10-23T02:40:54;5.93;;;1.58;;
34982;SDS011;21187;50.976;13.720;2022-10-23T02:46:05;2.28;;;0.88;;
34982;SDS011;21187;50.976;13.720;2022-10-23T02:51:21;5.97;;;1.00;;
34982;SDS011;21187;50.976;13.720;2022-10-23T02:56:37;6.88;;;1.00;;
34982;SDS011;21187;50.976;13.720;2022-10-23T03:01:49;2.63;;;1.13;;
34982;SDS011;21187;50.976;13.720;2022-10-23T03:06:54;6.13;;;1.10;;
34982;SDS011;21187;50.976;13.720;2022-10-23T03:11:57;4.28;;;1.05;;
34982;SDS011;21187;50.976;13.720;2022-10-23T03:16:59;5.97;;;1.02;;
34982;SDS011;21187;50.976;13.720;2022-10-23T03:22:01;1.20;;;0.80;;
34982;SDS011;21187;50.976;13.720;2022-10-23T03:27:03;8.40;;;1.35;;
34982;SDS011;21187;50.976;13.720;2022-10-23T03:32:06;3.33;;;0.80;;
34982;SDS011;21187;50.976;13.720;2022-10-23T03:37:08;4.40;;;0.68;;
34982;SDS011;21187;50.976;13.720;2022-10-23T03:42:10;4.63;;;1.17;;
34982;SDS011;21187;50.976;13.720;2022-10-23T03:47:12;4.28;;;0.90;;
34982;SDS011;21187;50.976;13.720;2022-10-23T03:52:15;7.85;;;1.10;;
34982;SDS011;21187;50.976;13.720;2022-10-23T03:57:17;4.18;;;0.80;;
34982;SDS011;21187;50.976;13.720;2022-10-23T04:02:20;6.18;;;1.23;;
34982;SDS011;21187;50.976;13.720;2022-10-23T04:07:22;5.03;;;0.90;;
34982;SDS011;21187;50.976;13.720;2022-10-23T04:12:24;2.85;;;1.00;;
34982;SDS011;21187;50.976;13.720;2022-10-23T04:17:26;5.22;;;0.85;;
34982;SDS011;21187;50.976;13.720;2022-10-23T04:22:33;8.43;;;0.98;;
34982;SDS011;21187;50.976;13.720;2022-10-23T04:27:35;4.10;;;0.98;;
34982;SDS011;21187;50.976;13.720;2022-10-23T04:32:37;2.50;;;0.70;;
34982;SDS011;21187;50.976;13.720;2022-10-23T04:37:38;5.20;;;0.80;;
34982;SDS011;21187;50.976;13.720;2022-10-23T04:42:41;8.50;;;1.00;;
34982;SDS011;21187;50.976;13.720;2022-10-23T04:47:43;6.85;;;1.10;;
34982;SDS011;21187;50.976;13.720;2022-10-23T04:52:46;11.27;;;1.08;;
34982;SDS011;21187;50.976;13.720;2022-10-23T04:58:14;3.60;;;1.00;;
34982;SDS011;21187;50.976;13.720;2022-10-23T05:03:17;3.20;;;0.90;;
34982;SDS011;21187;50.976;13.720;2022-10-23T05:08:20;4.43;;;1.00;;
34982;SDS011;21187;50.976;13.720;2022-10-23T05:13:44;2.10;;;0.85;;
34982;SDS011;21187;50.976;13.720;2022-10-23T05:18:46;2.60;;;0.80;;
34982;SDS011;21187;50.976;13.720;2022-10-23T05:23:49;5.57;;;1.10;;
34982;SDS011;21187;50.976;13.720;2022-10-23T05:28:51;1.63;;;0.90;;
34982;SDS011;21187;50.976;13.720;2022-10-23T05:33:53;3.03;;;0.80;;
34982;SDS011;21187;50.976;13.720;2022-10-23T05:38:57;9.43;;;1.30;;
34982;SDS011;21187;50.976;13.720;2022-10-23T05:44:00;3.55;;;1.42;;
34982;SDS011;21187;50.976;13.720;2022-10-23T05:49:22;4.07;;;1.38;;
34982;SDS011;21187;50.976;13.720;2022-10-23T05:54:45;9.60;;;1.35;;
34982;SDS011;21187;50.976;13.720;2022-10-23T05:59:54;4.97;;;1.38;;
34982;SDS011;21187;50.976;13.720;2022-10-23T06:04:59;7.95;;;1.40;;
34982;SDS011;21187;50.976;13.720;2022-10-23T06:10:21;10.75;;;1.50;;
34982;SDS011;21187;50.976;13.720;2022-10-23T06:15:25;7.75;;;1.42;;
34982;SDS011;21187;50.976;13.720;2022-10-23T06:20:46;7.07;;;1.40;;
34982;SDS011;21187;50.976;13.720;2022-10-23T06:25:56;3.60;;;1.00;;
34982;SDS011;21187;50.976;13.720;2022-10-23T06:31:07;3.77;;;1.43;;
34982;SDS011;21187;50.976;13.720;2022-10-23T06:36:11;4.35;;;1.70;;
34982;SDS011;21187;50.976;13.720;2022-10-23T06:41:16;4.53;;;1.40;;
34982;SDS011;21187;50.976;13.720;2022-10-23T06:46:24;4.90;;;1.90;;
34982;SDS011;21187;50.976;13.720;2022-10-23T06:51:51;6.55;;;1.50;;
34982;SDS011;21187;50.976;13.720;2022-10-23T06:56:55;4.85;;;1.52;;
34982;SDS011;21187;50.976;13.720;2022-10-23T07:02:07;8.77;;;2.97;;
34982;SDS011;21187;50.976;13.720;2022-10-23T07:07:11;8.20;;;2.17;;
34982;SDS011;21187;50.976;13.720;2022-10-23T07:12:18;4.38;;;1.88;;
34982;SDS011;21187;50.976;13.720;2022-10-23T07:17:27;6.50;;;1.67;;
34982;SDS011;21187;50.976;13.720;2022-10-23T07:22:29;6.57;;;1.48;;
34982;SDS011;21187;50.976;13.720;2022-10-23T07:27:39;10.75;;;2.55;;
34982;SDS011;21187;50.976;13.720;2022-10-23T07:32:43;7.75;;;2.05;;
34982;SDS011;21187;50.976;13.720;2022-10-23T07:37:45;5.20;;;2.25;;
34982;SDS011;21187;50.976;13.720;2022-10-23T07:42:47;6.63;;;2.65;;
34982;SDS011;21187;50.976;13.720;2022-10-23T07:47:51;13.90;;;3.05;;
34982;SDS011;21187;50.976;13.720;2022-10-23T07:52:57;5.22;;;2.88;;
34982;SDS011;21187;50.976;13.720;2022-10-23T07:58:09;8.02;;;2.90;;
34982;SDS011;21187;50.976;13.720;2022-10-23T08:03:16;13.20;;;3.42;;
34982;SDS011;21187;50.976;13.720;2022-10-23T08:08:20;7.85;;;3.33;;
34982;SDS011;21187;50.976;13.720;2022-10-23T08:13:25;5.50;;;3.03;;
34982;SDS011;21187;50.976;13.720;2022-10-23T08:18:34;9.23;;;3.40;;
34982;SDS011;21187;50.976;13.720;2022-10-23T08:23:36;18.50;;;3.85;;
34982;SDS011;21187;50.976;13.720;2022-10-23T08:28:38;7.88;;;3.42;;
34982;SDS011;21187;50.976;13.720;2022-10-23T08:33:40;7.95;;;3.22;;
34982;SDS011;21187;50.976;13.720;2022-10-23T08:38:43;6.63;;;3.78;;
34982;SDS011;21187;50.976;13.720;2022-10-23T08:43:53;8.43;;;4.00;;
34982;SDS011;21187;50.976;13.720;2022-10-23T08:49:19;7.53;;;3.83;;
34982;SDS011;21187;50.976;13.720;2022-10-23T08:59:46;11.90;;;4.65;;
34982;SDS011;21187;50.976;13.720;2022-10-23T09:04:53;9.65;;;3.90;;
34982;SDS011;21187;50.976;13.720;2022-10-23T09:15:38;8.45;;;3.72;;
34982;SDS011;21187;50.976;13.720;2022-10-23T09:20:45;14.18;;;4.65;;
34982;SDS011;21187;50.976;13.720;2022-10-23T09:25:48;12.20;;;4.00;;
34982;SDS011;21187;50.976;13.720;2022-10-23T09:31:05;7.55;;;4.68;;
34982;SDS011;21187;50.976;13.720;2022-10-23T09:41:26;10.77;;;4.50;;
34982;SDS011;21187;50.976;13.720;2022-10-23T09:46:38;7.50;;;4.78;;
34982;SDS011;21187;50.976;13.720;2022-10-23T09:57:14;7.50;;;4.03;;
34982;SDS011;21187;50.976;13.720;2022-10-23T10:02:30;6.45;;;3.90;;
34982;SDS011;21187;50.976;13.720;2022-10-23T10:07:33;11.30;;;4.35;;
34982;SDS011;21187;50.976;13.720;2022-10-23T10:12:48;10.05;;;4.05;;
34982;SDS011;21187;50.976;13.720;2022-10-23T10:29:16;9.30;;;4.10;;
34982;SDS011;21187;50.976;13.720;2022-10-23T10:40:00;8.77;;;4.00;;
34982;SDS011;21187;50.976;13.720;2022-10-23T10:45:38;8.77;;;3.85;;
34982;SDS011;21187;50.976;13.720;2022-10-23T10:56:16;8.50;;;3.40;;
34982;SDS011;21187;50.976;13.720;2022-10-23T11:01:36;7.32;;;3.40;;
34982;SDS011;21187;50.976;13.720;2022-10-23T11:06:44;7.72;;;3.38;;
34982;SDS011;21187;50.976;13.720;2022-10-23T11:11:49;7.78;;;4.25;;
34982;SDS011;21187;50.976;13.720;2022-10-23T11:17:02;11.07;;;4.50;;
34982;SDS011;21187;50.976;13.720;2022-10-23T11:27:16;9.40;;;3.50;;
34982;SDS011;21187;50.976;13.720;2022-10-23T11:43:24;10.18;;;4.70;;
34982;SDS011;21187;50.976;13.720;2022-10-23T11:48:35;9.13;;;4.15;;
34982;SDS011;21187;50.976;13.720;2022-10-23T11:53:41;5.60;;;3.50;;
34982;SDS011;21187;50.976;13.720;2022-10-23T11:58:44;7.63;;;3.75;;
34982;SDS011;21187;50.976;13.720;2022-10-23T12:04:00;7.00;;;3.00;;
34982;SDS011;21187;50.976;13.720;2022-10-23T12:09:35;4.55;;;2.38;;
34982;SDS011;21187;50.976;13.720;2022-10-23T12:14:46;7.30;;;3.65;;
34982;SDS011;21187;50.976;13.720;2022-10-23T12:19:51;7.32;;;3.60;;
34982;SDS011;21187;50.976;13.720;2022-10-23T12:41:14;8.63;;;3.00;;
34982;SDS011;21187;50.976;13.720;2022-10-23T12:51:36;7.43;;;2.42;;
34982;SDS011;21187;50.976;13.720;2022-10-23T12:56:38;10.30;;;1.70;;
34982;SDS011;21187;50.976;13.720;2022-10-23T13:01:40;4.53;;;1.13;;
34982;SDS011;21187;50.976;13.720;2022-10-23T13:06:44;1.98;;;1.08;;
34982;SDS011;21187;50.976;13.720;2022-10-23T13:11:48;2.50;;;1.45;;
34982;SDS011;21187;50.976;13.720;2022-10-23T13:17:05;5.95;;;1.67;;
34982;SDS011;21187;50.976;13.720;2022-10-23T13:22:18;3.60;;;1.55;;
34982;SDS011;21187;50.976;13.720;2022-10-23T13:27:25;4.70;;;1.67;;
34982;SDS011;21187;50.976;13.720;2022-10-23T13:32:33;4.78;;;1.60;;
34982;SDS011;21187;50.976;13.720;2022-10-23T13:37:35;6.13;;;1.92;;
34982;SDS011;21187;50.976;13.720;2022-10-23T13:42:38;5.13;;;1.88;;
34982;SDS011;21187;50.976;13.720;2022-10-23T13:47:40;8.18;;;2.15;;
34982;SDS011;21187;50.976;13.720;2022-10-23T13:52:42;4.10;;;1.70;;
34982;SDS011;21187;50.976;13.720;2022-10-23T13:57:44;4.25;;;1.77;;
34982;SDS011;21187;50.976;13.720;2022-10-23T14:02:47;6.38;;;2.03;;
34982;SDS011;21187;50.976;13.720;2022-10-23T14:07:49;6.78;;;1.70;;
34982;SDS011;21187;50.976;13.720;2022-10-23T14:12:50;9.05;;;2.13;;
34982;SDS011;21187;50.976;13.720;2022-10-23T14:17:55;7.22;;;2.38;;
34982;SDS011;21187;50.976;13.720;2022-10-23T14:23:01;3.10;;;1.75;;
34982;SDS011;21187;50.976;13.720;2022-10-23T14:28:03;9.82;;;2.35;;
34982;SDS011;21187;50.976;13.720;2022-10-23T14:33:06;8.50;;;3.20;;
34982;SDS011;21187;50.976;13.720;2022-10-23T14:38:07;7.63;;;2.70;;
34982;SDS011;21187;50.976;13.720;2022-10-23T14:43:09;10.77;;;2.17;;
34982;SDS011;21187;50.976;13.720;2022-10-23T14:48:11;2.88;;;1.92;;
34982;SDS011;21187;50.976;13.720;2022-10-23T14:53:14;6.25;;;2.63;;
34982;SDS011;21187;50.976;13.720;2022-10-23T14:58:16;8.88;;;2.15;;
34982;SDS011;21187;50.976;13.720;2022-10-23T15:03:18;4.80;;;2.47;;
34982;SDS011;21187;50.976;13.720;2022-10-23T15:08:21;7.20;;;2.70;;
34982;SDS011;21187;50.976;13.720;2022-10-23T15:13:24;5.85;;;3.35;;
34982;SDS011;21187;50.976;13.720;2022-10-23T15:18:26;8.05;;;4.18;;
34982;SDS011;21187;50.976;13.720;2022-10-23T15:23:28;11.65;;;4.00;;
34982;SDS011;21187;50.976;13.720;2022-10-23T15:28:30;6.75;;;2.97;;
34982;SDS011;21187;50.976;13.720;2022-10-23T15:33:32;7.40;;;3.15;;
34982;SDS011;21187;50.976;13.720;2022-10-23T15:38:34;6.88;;;2.92;;
34982;SDS011;21187;50.976;13.720;2022-10-23T15:43:36;8.32;;;3.55;;
34982;SDS011;21187;50.976;13.720;2022-10-23T15:48:39;12.02;;;5.32;;
34982;SDS011;21187;50.976;13.720;2022-10-23T15:53:41;13.05;;;5.78;;
34982;SDS011;21187;50.976;13.720;2022-10-23T15:58:43;13.05;;;3.40;;
34982;SDS011;21187;50.976;13.720;2022-10-23T16:03:45;9.07;;;3.35;;
34982;SDS011;21187;50.976;13.720;2022-10-23T16:08:47;7.22;;;3.50;;
34982;SDS011;21187;50.976;13.720;2022-10-23T16:13:49;8.30;;;3.70;;
34982;SDS011;21187;50.976;13.720;2022-10-23T16:18:51;11.60;;;4.10;;
34982;SDS011;21187;50.976;13.720;2022-10-23T16:23:54;10.38;;;3.97;;
34982;SDS011;21187;50.976;13.720;2022-10-23T16:28:59;9.55;;;5.30;;
34982;SDS011;21187;50.976;13.720;2022-10-23T16:34:03;7.95;;;3.70;;
34982;SDS011;21187;50.976;13.720;2022-10-23T16:39:07;8.13;;;4.07;;
34982;SDS011;21187;50.976;13.720;2022-10-23T16:44:29;10.02;;;4.68;;
34982;SDS011;21187;50.976;13.720;2022-10-23T16:49:33;8.27;;;3.60;;
34982;SDS011;21187;50.976;13.720;2022-10-23T16:54:34;9.93;;;4.03;;
34982;SDS011;21187;50.976;13.720;2022-10-23T16:59:36;11.63;;;4.53;;
34982;SDS011;21187;50.976;13.720;2022-10-23T17:04:38;7.13;;;3.65;;
34982;SDS011;21187;50.976;13.720;2022-10-23T17:09:42;10.05;;;4.40;;
34982;SDS011;21187;50.976;13.720;2022-10-23T17:14:44;13.80;;;7.72;;
34982;SDS011;21187;50.976;13.720;2022-10-23T17:19:46;11.05;;;4.90;;
34982;SDS011;21187;50.976;13.720;2022-10-23T17:24:48;10.82;;;5.38;;
34982;SDS011;21187;50.976;13.720;2022-10-23T17:29:54;8.70;;;4.57;;
34982;SDS011;21187;50.976;13.720;2022-10-23T17:34:56;10.52;;;4.68;;
34982;SDS011;21187;50.976;13.720;2022-10-23T17:39:58;10.88;;;5.25;;
34982;SDS011;21187;50.976;13.720;2022-10-23T17:45:03;11.23;;;5.18;;
34982;SDS011;21187;50.976;13.720;2022-10-23T17:50:05;17.42;;;5.75;;
34982;SDS011;21187;50.976;13.720;2022-10-23T17:55:09;9.35;;;4.78;;
34982;SDS011;21187;50.976;13.720;2022-10-23T18:00:11;9.13;;;4.45;;
34982;SDS011;21187;50.976;13.720;2022-10-23T18:05:13;12.63;;;4.55;;
34982;SDS011;21187;50.976;13.720;2022-10-23T18:10:15;8.60;;;4.55;;
34982;SDS011;21187;50.976;13.720;2022-10-23T18:15:17;8.27;;;4.70;;
34982;SDS011;21187;50.976;13.720;2022-10-23T18:20:20;10.65;;;5.10;;
34982;SDS011;21187;50.976;13.720;2022-10-23T18:25:22;8.07;;;4.28;;
34982;SDS011;21187;50.976;13.720;2022-10-23T18:30:24;10.80;;;4.55;;
34982;SDS011;21187;50.976;13.720;2022-10-23T18:35:26;8.73;;;4.32;;
34982;SDS011;21187;50.976;13.720;2022-10-23T18:40:29;7.22;;;4.32;;
34982;SDS011;21187;50.976;13.720;2022-10-23T18:45:32;8.18;;;3.75;;
34982;SDS011;21187;50.976;13.720;2022-10-23T18:50:36;7.18;;;2.78;;
34982;SDS011;21187;50.976;13.720;2022-10-23T18:55:46;9.20;;;2.60;;
34982;SDS011;21187;50.976;13.720;2022-10-23T19:00:51;8.77;;;3.00;;
34982;SDS011;21187;50.976;13.720;2022-10-23T19:05:54;11.10;;;4.15;;
34982;SDS011;21187;50.976;13.720;2022-10-23T19:10:55;10.27;;;4.18;;
34982;SDS011;21187;50.976;13.720;2022-10-23T19:16:00;12.98;;;4.60;;
34982;SDS011;21187;50.976;13.720;2022-10-23T19:21:03;11.40;;;4.65;;
34982;SDS011;21187;50.976;13.720;2022-10-23T19:26:07;12.48;;;5.20;;
34982;SDS011;21187;50.976;13.720;2022-10-23T19:31:10;11.32;;;5.03;;
34982;SDS011;21187;50.976;13.720;2022-10-23T19:36:13;10.40;;;4.63;;
34982;SDS011;21187;50.976;13.720;2022-10-23T19:41:18;12.43;;;5.55;;
34982;SDS011;21187;50.976;13.720;2022-10-23T19:46:21;9.85;;;4.38;;
34982;SDS011;21187;50.976;13.720;2022-10-23T19:51:23;9.80;;;4.20;;
34982;SDS011;21187;50.976;13.720;2022-10-23T19:56:25;9.95;;;4.45;;
34982;SDS011;21187;50.976;13.720;2022-10-23T20:01:27;8.80;;;3.65;;
34982;SDS011;21187;50.976;13.720;2022-10-23T20:06:30;10.95;;;4.68;;
34982;SDS011;21187;50.976;13.720;2022-10-23T20:11:37;9.20;;;4.00;;
34982;SDS011;21187;50.976;13.720;2022-10-23T20:16:41;9.35;;;4.28;;
34982;SDS011;21187;50.976;13.720;2022-10-23T20:21:45;11.93;;;4.93;;
34982;SDS011;21187;50.976;13.720;2022-10-23T20:26:50;8.25;;;4.28;;
34982;SDS011;21187;50.976;13.720;2022-10-23T20:31:53;11.13;;;4.30;;
34982;SDS011;21187;50.976;13.720;2022-10-23T20:36:55;10.55;;;4.63;;
34982;SDS011;21187;50.976;13.720;2022-10-23T20:41:57;11.35;;;4.30;;
34982;SDS011;21187;50.976;13.720;2022-10-23T20:47:00;9.68;;;4.35;;
34982;SDS011;21187;50.976;13.720;2022-10-23T20:52:02;10.07;;;4.18;;
34982;SDS011;21187;50.976;13.720;2022-10-23T20:57:04;9.98;;;4.40;;
34982;SDS011;21187;50.976;13.720;2022-10-23T21:02:06;12.73;;;4.60;;
34982;SDS011;21187;50.976;13.720;2022-10-23T21:07:08;11.00;;;4.68;;
34982;SDS011;21187;50.976;13.720;2022-10-23T21:12:12;13.13;;;4.47;;
34982;SDS011;21187;50.976;13.720;2022-10-23T21:17:13;11.00;;;4.60;;
34982;SDS011;21187;50.976;13.720;2022-10-23T21:22:18;19.90;;;6.10;;
34982;SDS011;21187;50.976;13.720;2022-10-23T21:27:19;16.67;;;6.35;;
34982;SDS011;21187;50.976;13.720;2022-10-23T21:32:21;14.85;;;4.85;;
34982;SDS011;21187;50.976;13.720;2022-10-23T21:37:23;5.25;;;2.33;;
34982;SDS011;21187;50.976;13.720;2022-10-23T21:42:26;5.90;;;2.03;;
34982;SDS011;21187;50.976;13.720;2022-10-23T21:47:33;5.60;;;3.20;;
34982;SDS011;21187;50.976;13.720;2022-10-23T21:52:35;8.63;;;3.00;;
34982;SDS011;21187;50.976;13.720;2022-10-23T21:57:37;5.85;;;2.10;;
34982;SDS011;21187;50.976;13.720;2022-10-23T22:02:38;5.28;;;2.38;;
34982;SDS011;21187;50.976;13.720;2022-10-23T22:07:44;5.40;;;2.97;;
34982;SDS011;21187;50.976;13.720;2022-10-23T22:12:47;9.18;;;2.47;;
34982;SDS011;21187;50.976;13.720;2022-10-23T22:17:49;7.82;;;3.00;;
34982;SDS011;21187;50.976;13.720;2022-10-23T22:22:51;5.80;;;2.70;;
34982;SDS011;21187;50.976;13.720;2022-10-23T22:27:53;5.80;;;2.90;;
34982;SDS011;21187;50.976;13.720;2022-10-23T22:32:55;5.45;;;3.00;;
34982;SDS011;21187;50.976;13.720;2022-10-23T22:37:56;11.50;;;3.03;;
34982;SDS011;21187;50.976;13.720;2022-10-23T22:42:58;6.20;;;2.83;;
34982;SDS011;21187;50.976;13.720;2022-10-23T22:48:00;8.82;;;3.15;;
34982;SDS011;21187;50.976;13.720;2022-10-23T22:53:02;8.13;;;3.22;;
34982;SDS011;21187;50.976;13.720;2022-10-23T22:58:04;6.00;;;3.10;;
34982;SDS011;21187;50.976;13.720;2022-10-23T23:03:06;8.75;;;3.50;;
34982;SDS011;21187;50.976;13.720;2022-10-23T23:08:08;11.38;;;4.07;;
34982;SDS011;21187;50.976;13.720;2022-10-23T23:13:10;11.38;;;4.43;;
34982;SDS011;21187;50.976;13.720;2022-10-23T23:18:12;12.63;;;5.03;;
34982;SDS011;21187;50.976;13.720;2022-10-23T23:23:14;15.38;;;5.00;;
34982;SDS011;21187;50.976;13.720;2022-10-23T23:28:16;15.30;;;5.53;;
34982;SDS011;21187;50.976;13.720;2022-10-23T23:33:20;12.65;;;6.03;;
34982;SDS011;21187;50.976;13.720;2022-10-23T23:38:24;20.48;;;6.60;;
34982;SDS011;21187;50.976;13.720;2022-10-23T23:43:26;15.73;;;6.40;;
34982;SDS011;21187;50.976;13.720;2022-10-23T23:48:28;17.77;;;6.43;;
34982;SDS011;21187;50.976;13.720;2022-10-23T23:53:30;17.70;;;6.47;;
34982;SDS011;21187;50.976;13.720;2022-10-23T23:58:32;14.52;;;6.05;;
